createdAt,value
2018-03-11T00:01:57.826Z,11.82
2018-03-11T00:04:25.297Z,11.75
2018-03-11T00:06:52.796Z,11.71
2018-03-11T00:09:20.300Z,11.69
2018-03-11T00:11:47.777Z,11.74
2018-03-11T00:14:15.275Z,11.76
2018-03-11T00:16:42.938Z,11.73
2018-03-11T00:19:10.434Z,11.76
2018-03-11T00:21:37.916Z,11.78
2018-03-11T00:24:05.405Z,11.78
2018-03-11T00:26:32.910Z,11.77
2018-03-11T00:29:00.404Z,11.79
2018-03-11T00:31:27.917Z,11.74
2018-03-11T00:33:55.430Z,11.72
2018-03-11T00:36:22.921Z,11.75
2018-03-11T00:38:50.405Z,11.71
2018-03-11T00:41:17.900Z,11.64
2018-03-11T00:43:45.397Z,11.57
2018-03-11T00:46:12.882Z,11.53
2018-03-11T00:48:40.376Z,11.52
2018-03-11T00:51:07.887Z,11.42
2018-03-11T00:53:35.362Z,11.17
2018-03-11T00:56:02.860Z,10.99
2018-03-11T00:58:30.367Z,11.04
2018-03-11T01:00:57.854Z,11.06
2018-03-11T01:03:25.353Z,11.05
2018-03-11T01:05:52.873Z,11.08
2018-03-11T01:08:20.346Z,11.00
2018-03-11T01:10:47.821Z,10.82
2018-03-11T01:13:15.303Z,10.81
2018-03-11T01:15:42.816Z,10.68
2018-03-11T01:18:10.337Z,10.58
2018-03-11T01:20:37.830Z,10.49
2018-03-11T01:23:05.310Z,10.47
2018-03-11T01:25:32.815Z,10.42
2018-03-11T01:28:00.308Z,10.33
2018-03-11T01:30:27.790Z,10.25
2018-03-11T01:32:55.324Z,10.17
2018-03-11T01:35:22.830Z,10.08
2018-03-11T01:37:50.338Z,10.09
2018-03-11T01:40:17.848Z,10.03
2018-03-11T01:42:45.346Z,9.97
2018-03-11T01:45:12.857Z,9.80
2018-03-11T01:47:40.372Z,9.58
2018-03-11T01:50:07.870Z,9.61
2018-03-11T01:52:47.148Z,9.70
2018-03-11T01:55:14.709Z,9.73
2018-03-11T01:57:42.199Z,9.74
2018-03-11T02:00:09.727Z,9.77
2018-03-11T02:02:37.214Z,9.80
2018-03-11T02:05:04.712Z,9.75
2018-03-11T02:07:32.219Z,9.67
2018-03-11T02:09:59.716Z,9.59
2018-03-11T02:12:27.221Z,9.47
2018-03-11T02:14:54.863Z,9.44
2018-03-11T02:17:22.369Z,9.41
2018-03-11T02:19:49.853Z,9.57
2018-03-11T02:22:17.344Z,9.69
2018-03-11T02:24:44.839Z,9.76
2018-03-11T02:27:12.371Z,9.80
2018-03-11T02:29:39.849Z,9.90
2018-03-11T02:32:07.393Z,9.97
2018-03-11T02:34:34.886Z,9.96
2018-03-11T02:37:02.414Z,10.00
2018-03-11T02:39:29.910Z,10.02
2018-03-11T02:41:57.414Z,10.01
2018-03-11T02:44:24.908Z,10.11
2018-03-11T02:46:52.405Z,10.18
2018-03-11T02:49:19.926Z,10.21
2018-03-11T02:51:47.432Z,10.23
2018-03-11T02:54:14.918Z,10.26
2018-03-11T02:56:42.407Z,10.27
2018-03-11T02:59:09.905Z,10.19
2018-03-11T03:01:37.486Z,10.17
2018-03-11T03:04:05.122Z,10.06
2018-03-11T03:06:32.625Z,10.07
2018-03-11T03:09:00.105Z,10.03
2018-03-11T03:11:27.596Z,10.08
2018-03-11T03:13:55.107Z,10.02
2018-03-11T03:16:22.596Z,10.03
2018-03-11T03:18:50.074Z,10.04
2018-03-11T03:21:17.570Z,10.01
2018-03-11T03:23:45.042Z,9.99
2018-03-11T03:26:12.524Z,9.99
2018-03-11T03:28:40.018Z,9.98
2018-03-11T03:31:07.505Z,10.06
2018-03-11T03:33:35.000Z,10.12
2018-03-11T03:36:02.491Z,10.09
2018-03-11T03:38:30.050Z,10.01
2018-03-11T03:40:57.508Z,9.79
2018-03-11T03:43:25.012Z,9.79
2018-03-11T03:45:52.532Z,9.66
2018-03-11T03:48:20.035Z,9.61
2018-03-11T03:50:47.546Z,9.58
2018-03-11T03:53:15.060Z,9.55
2018-03-11T03:55:42.560Z,9.67
2018-03-11T03:58:10.068Z,9.65
2018-03-11T04:00:37.572Z,9.67
2018-03-11T04:03:05.093Z,9.65
2018-03-11T04:05:32.585Z,9.69
2018-03-11T04:08:00.081Z,9.73
2018-03-11T04:10:27.630Z,9.77
2018-03-11T04:12:55.120Z,9.81
2018-03-11T04:15:22.619Z,9.85
2018-03-11T04:17:50.145Z,9.86
2018-03-11T04:20:17.652Z,9.90
2018-03-11T04:22:45.126Z,9.88
2018-03-11T04:25:12.619Z,9.83
2018-03-11T04:27:40.125Z,9.83
2018-03-11T04:30:07.624Z,9.85
2018-03-11T04:32:35.116Z,9.88
2018-03-11T04:35:02.597Z,9.77
2018-03-11T04:37:30.087Z,9.75
2018-03-11T04:39:57.604Z,9.73
2018-03-11T04:42:25.108Z,9.70
2018-03-11T04:44:52.598Z,9.73
2018-03-11T04:47:20.116Z,9.80
2018-03-11T04:49:47.616Z,9.85
2018-03-11T04:52:15.094Z,9.88
2018-03-11T04:54:42.595Z,9.92
2018-03-11T04:57:10.083Z,9.94
2018-03-11T04:59:37.576Z,9.83
2018-03-11T05:02:05.072Z,9.79
2018-03-11T05:04:32.562Z,9.80
2018-03-11T05:07:00.052Z,9.80
2018-03-11T05:09:27.531Z,9.79
2018-03-11T05:11:55.033Z,9.77
2018-03-11T05:14:22.518Z,9.80
2018-03-11T05:16:50.012Z,9.76
2018-03-11T05:19:17.512Z,9.73
2018-03-11T05:21:45.007Z,9.74
2018-03-11T05:24:12.559Z,9.69
2018-03-11T05:26:39.988Z,9.61
2018-03-11T05:29:07.454Z,9.49
2018-03-11T05:31:35.016Z,9.55
2018-03-11T05:34:02.517Z,9.55
2018-03-11T05:36:30.021Z,9.43
2018-03-11T05:38:57.546Z,9.41
2018-03-11T05:41:25.120Z,9.42
2018-03-11T05:43:52.617Z,9.45
2018-03-11T05:46:20.141Z,9.47
2018-03-11T05:48:48.754Z,9.45
2018-03-11T05:51:16.218Z,9.39
2018-03-11T05:53:43.714Z,9.38
2018-03-11T05:56:11.208Z,9.36
2018-03-11T05:58:38.861Z,9.31
2018-03-11T06:01:06.348Z,9.31
2018-03-11T06:03:34.082Z,9.27
2018-03-11T06:06:01.566Z,9.20
2018-03-11T06:08:29.037Z,9.10
2018-03-11T06:10:56.549Z,9.09
2018-03-11T06:13:24.052Z,9.10
2018-03-11T06:15:51.583Z,9.10
2018-03-11T06:18:19.105Z,9.15
2018-03-11T06:20:46.617Z,9.11
2018-03-11T06:23:14.089Z,9.11
2018-03-11T06:25:41.593Z,9.10
2018-03-11T06:28:09.091Z,9.13
2018-03-11T06:30:36.594Z,9.15
2018-03-11T06:33:04.115Z,9.26
2018-03-11T06:35:31.607Z,9.39
2018-03-11T06:37:59.082Z,9.53
2018-03-11T06:40:26.648Z,9.60
2018-03-11T06:42:54.166Z,9.72
2018-03-11T06:45:21.657Z,9.92
2018-03-11T06:47:49.168Z,10.14
2018-03-11T06:50:16.660Z,10.12
2018-03-11T06:52:44.190Z,10.27
2018-03-11T06:55:11.849Z,10.31
2018-03-11T06:57:39.349Z,10.47
2018-03-11T07:00:06.872Z,10.70
2018-03-11T07:02:34.368Z,11.00
2018-03-11T07:05:01.869Z,11.28
2018-03-11T07:07:29.362Z,11.47
2018-03-11T07:09:56.854Z,11.74
2018-03-11T07:12:24.361Z,11.97
2018-03-11T07:14:51.904Z,12.53
2018-03-11T07:17:19.392Z,12.61
2018-03-11T07:19:46.895Z,12.83
2018-03-11T07:22:15.470Z,12.97
2018-03-11T07:24:42.988Z,12.95
2018-03-11T07:27:10.506Z,12.76
2018-03-11T07:29:38.001Z,12.39
2018-03-11T07:32:05.494Z,12.45
2018-03-11T07:34:33.009Z,12.80
2018-03-11T07:37:00.576Z,12.36
2018-03-11T07:39:28.165Z,12.52
2018-03-11T07:41:55.724Z,12.78
2018-03-11T07:44:23.277Z,13.04
2018-03-11T07:46:50.785Z,13.06
2018-03-11T07:49:18.333Z,12.94
2018-03-11T07:51:46.917Z,12.70
2018-03-11T07:54:14.453Z,12.65
2018-03-11T07:56:42.070Z,12.89
2018-03-11T07:59:09.577Z,12.81
2018-03-11T08:01:37.147Z,13.07
2018-03-11T08:04:04.686Z,13.26
2018-03-11T08:06:32.194Z,13.15
2018-03-11T08:08:59.711Z,13.56
2018-03-11T08:11:27.198Z,13.89
2018-03-11T08:13:54.688Z,13.97
2018-03-11T08:16:22.219Z,14.39
2018-03-11T08:18:49.746Z,14.03
2018-03-11T08:21:17.272Z,14.02
2018-03-11T08:23:44.769Z,14.05
2018-03-11T08:26:12.259Z,14.33
2018-03-11T08:28:39.746Z,14.28
2018-03-11T08:31:07.260Z,14.62
2018-03-11T08:33:34.735Z,15.10
2018-03-11T08:36:02.272Z,15.48
2018-03-11T08:38:29.757Z,15.34
2018-03-11T08:40:57.258Z,15.81
2018-03-11T08:43:24.742Z,16.06
2018-03-11T08:45:52.241Z,16.09
2018-03-11T08:48:19.756Z,16.10
2018-03-11T08:50:47.263Z,15.75
2018-03-11T08:53:14.816Z,16.05
2018-03-11T08:55:42.315Z,16.05
2018-03-11T08:58:09.811Z,17.05
2018-03-11T09:00:37.333Z,16.35
2018-03-11T09:03:04.833Z,16.10
2018-03-11T09:05:32.320Z,16.13
2018-03-11T09:07:59.820Z,15.87
2018-03-11T09:10:27.327Z,15.31
2018-03-11T09:12:54.840Z,15.31
2018-03-11T09:15:22.333Z,15.31
2018-03-11T09:17:49.860Z,15.40
2018-03-11T09:20:17.353Z,15.20
2018-03-11T09:22:44.857Z,15.30
2018-03-11T09:25:12.372Z,15.30
2018-03-11T09:27:39.845Z,14.70
2018-03-11T09:30:07.345Z,14.79
2018-03-11T09:32:34.844Z,14.70
2018-03-11T09:35:02.360Z,14.87
2018-03-11T09:37:29.974Z,14.65
2018-03-11T09:39:57.552Z,14.88
2018-03-11T09:42:25.287Z,14.95
2018-03-11T09:44:52.964Z,15.20
2018-03-11T09:47:20.499Z,14.78
2018-03-11T09:49:47.991Z,14.95
2018-03-11T09:52:15.465Z,15.03
2018-03-11T09:54:42.959Z,15.40
2018-03-11T09:57:10.481Z,15.40
2018-03-11T09:59:38.018Z,15.66
2018-03-11T10:02:05.536Z,15.76
2018-03-11T10:04:33.044Z,15.87
2018-03-11T10:07:00.533Z,15.89
2018-03-11T10:09:28.039Z,15.94
2018-03-11T10:11:55.532Z,16.02
2018-03-11T10:14:23.037Z,16.08
2018-03-11T10:16:50.535Z,16.18
2018-03-11T10:19:18.231Z,16.07
2018-03-11T10:21:45.754Z,16.38
2018-03-11T10:24:13.262Z,16.26
2018-03-11T10:26:40.753Z,16.10
2018-03-11T10:29:08.244Z,16.24
2018-03-11T10:31:35.726Z,16.37
2018-03-11T10:34:03.200Z,16.30
2018-03-11T10:36:30.692Z,16.38
2018-03-11T10:38:58.196Z,16.27
2018-03-11T10:41:25.707Z,16.27
2018-03-11T10:43:53.230Z,16.31
2018-03-11T10:46:20.720Z,16.49
2018-03-11T10:48:48.216Z,15.83
2018-03-11T10:51:15.716Z,15.76
2018-03-11T10:53:43.263Z,15.72
2018-03-11T10:56:10.753Z,15.68
2018-03-11T10:58:38.229Z,15.70
2018-03-11T11:01:11.276Z,15.69
2018-03-11T11:03:38.777Z,15.93
2018-03-11T11:06:06.285Z,15.76
2018-03-11T11:08:33.789Z,15.72
2018-03-11T11:11:01.300Z,15.74
2018-03-11T11:13:28.802Z,15.76
2018-03-11T11:15:56.286Z,15.82
2018-03-11T11:18:23.778Z,15.82
2018-03-11T11:20:51.337Z,15.72
2018-03-11T11:23:18.878Z,15.48
2018-03-11T11:25:46.388Z,15.59
2018-03-11T11:28:13.882Z,15.74
2018-03-11T11:30:41.403Z,15.64
2018-03-11T11:33:08.908Z,15.60
2018-03-11T11:35:36.416Z,15.70
2018-03-11T11:38:03.994Z,15.64
2018-03-11T11:40:31.504Z,15.59
2018-03-11T11:42:59.015Z,15.62
2018-03-11T11:45:26.517Z,15.74
2018-03-11T11:47:54.023Z,15.86
2018-03-11T11:50:21.521Z,15.95
2018-03-11T11:52:49.020Z,16.00
2018-03-11T11:55:16.502Z,15.90
2018-03-11T11:57:44.059Z,15.87
2018-03-11T12:00:11.553Z,15.82
2018-03-11T12:02:39.069Z,15.97
2018-03-11T12:05:06.572Z,15.79
2018-03-11T12:07:34.106Z,15.91
2018-03-11T12:10:01.637Z,15.93
2018-03-11T12:12:29.183Z,15.68
2018-03-11T12:14:56.670Z,15.71
2018-03-11T12:17:24.232Z,15.66
2018-03-11T12:19:51.758Z,15.75
2018-03-11T12:22:19.232Z,15.78
2018-03-11T12:24:46.848Z,15.72
2018-03-11T12:27:14.363Z,15.72
2018-03-11T12:29:41.840Z,15.72
2018-03-11T12:32:09.322Z,15.77
2018-03-11T12:34:36.798Z,15.73
2018-03-11T12:37:05.549Z,15.76
2018-03-11T12:39:33.179Z,15.85
2018-03-11T12:42:00.662Z,15.85
2018-03-11T12:44:28.185Z,15.91
2018-03-11T12:46:55.674Z,15.89
2018-03-11T12:49:23.629Z,15.92
2018-03-11T12:51:51.128Z,15.94
2018-03-11T12:54:18.642Z,15.97
2018-03-11T12:56:46.095Z,15.94
2018-03-11T12:59:13.567Z,15.91
2018-03-11T13:01:41.023Z,15.90
2018-03-11T13:04:08.470Z,15.98
2018-03-11T13:06:36.001Z,16.04
2018-03-11T13:09:03.562Z,16.04
2018-03-11T13:11:31.029Z,16.06
2018-03-11T13:13:58.494Z,16.07
2018-03-11T13:16:25.975Z,16.04
2018-03-11T13:18:53.467Z,16.05
2018-03-11T13:21:20.950Z,16.14
2018-03-11T13:23:48.454Z,16.23
2018-03-11T13:26:15.914Z,16.12
2018-03-11T13:28:50.182Z,16.09
2018-03-11T13:31:17.638Z,16.08
2018-03-11T13:33:56.962Z,16.01
2018-03-11T13:36:24.409Z,16.05
2018-03-11T13:39:03.718Z,16.10
2018-03-11T13:41:31.197Z,16.06
2018-03-11T13:43:58.704Z,16.15
2018-03-11T13:46:37.972Z,16.18
2018-03-11T13:49:05.442Z,16.13
2018-03-11T13:51:45.764Z,16.15
2018-03-11T13:54:13.201Z,16.10
2018-03-11T14:02:15.176Z,16.19
2018-03-11T14:04:42.738Z,16.18
2018-03-11T14:07:10.402Z,16.19
2018-03-11T14:09:37.894Z,16.10
2018-03-11T14:12:05.425Z,16.10
2018-03-11T14:14:32.906Z,16.10
2018-03-11T14:17:00.460Z,16.10
2018-03-11T14:19:27.989Z,16.15
2018-03-11T14:21:55.490Z,16.08
2018-03-11T14:24:23.004Z,16.04
2018-03-11T14:26:51.259Z,16.03
2018-03-11T14:29:18.780Z,16.02
2018-03-11T14:31:46.263Z,15.93
2018-03-11T14:34:13.748Z,15.95
2018-03-11T14:36:41.240Z,15.90
2018-03-11T14:39:08.719Z,15.87
2018-03-11T14:41:36.235Z,15.78
2018-03-11T14:44:03.726Z,15.81
2018-03-11T14:46:31.234Z,15.75
2018-03-11T14:48:58.732Z,15.78
2018-03-11T14:51:26.721Z,15.71
2018-03-11T14:53:54.194Z,15.71
2018-03-11T14:56:21.846Z,15.76
2018-03-11T14:58:49.336Z,15.75
2018-03-11T15:01:16.829Z,15.75
2018-03-11T15:03:44.324Z,15.81
2018-03-11T15:06:11.806Z,15.83
2018-03-11T15:08:39.424Z,15.88
2018-03-11T15:11:06.911Z,15.91
2018-03-11T15:13:34.431Z,15.97
2018-03-11T15:16:01.925Z,15.92
2018-03-11T15:18:29.395Z,15.99
2018-03-11T15:20:56.881Z,15.99
2018-03-11T15:23:24.516Z,16.02
2018-03-11T15:25:52.002Z,16.04
2018-03-11T15:28:19.466Z,15.93
2018-03-11T15:30:47.046Z,16.01
2018-03-11T15:33:14.518Z,16.02
2018-03-11T15:35:42.016Z,16.01
2018-03-11T15:38:09.536Z,16.05
2018-03-11T15:40:37.024Z,16.03
2018-03-11T15:43:04.545Z,16.05
2018-03-11T15:45:32.053Z,16.07
2018-03-11T15:47:59.552Z,16.03
2018-03-11T15:50:27.023Z,16.06
2018-03-11T15:52:54.553Z,16.00
2018-03-11T15:55:22.778Z,16.02
2018-03-11T15:57:50.346Z,16.07
2018-03-11T16:00:17.869Z,16.02
2018-03-11T16:02:45.358Z,15.96
2018-03-11T16:05:12.928Z,15.97
2018-03-11T16:07:40.575Z,15.87
2018-03-11T16:10:08.076Z,15.88
2018-03-11T16:12:36.522Z,15.89
2018-03-11T16:15:04.810Z,15.90
2018-03-11T16:17:32.355Z,15.87
2018-03-11T16:19:59.947Z,15.78
2018-03-11T16:22:27.434Z,15.74
2018-03-11T16:24:54.980Z,15.73
2018-03-11T16:27:22.501Z,15.73
2018-03-11T16:29:49.991Z,15.78
2018-03-11T16:32:17.493Z,15.69
2018-03-11T16:34:45.053Z,15.69
2018-03-11T16:37:12.607Z,15.64
2018-03-11T16:39:40.172Z,15.58
2018-03-11T16:42:07.657Z,15.61
2018-03-11T16:44:35.158Z,15.64
2018-03-11T16:47:02.695Z,15.62
2018-03-11T16:49:30.174Z,15.52
2018-03-11T16:51:57.751Z,15.47
2018-03-11T16:54:25.269Z,15.44
2018-03-11T16:56:52.854Z,15.48
2018-03-11T16:59:20.597Z,15.50
2018-03-11T17:01:48.068Z,15.44
2018-03-11T17:04:15.581Z,15.43
2018-03-11T17:06:43.066Z,15.31
2018-03-11T17:09:10.546Z,15.26
2018-03-11T17:11:38.107Z,15.32
2018-03-11T17:14:05.709Z,15.30
2018-03-11T17:16:33.267Z,15.28
2018-03-11T17:19:00.797Z,15.25
2018-03-11T17:21:28.346Z,15.12
2018-03-11T17:23:55.843Z,15.10
2018-03-11T17:26:23.411Z,15.03
2018-03-11T17:28:51.036Z,14.95
2018-03-11T17:31:18.614Z,15.00
2018-03-11T17:33:46.108Z,14.88
2018-03-11T17:36:13.719Z,14.86
2018-03-11T17:38:41.244Z,14.76
2018-03-11T17:41:12.398Z,14.70
2018-03-11T17:43:39.940Z,14.69
2018-03-11T17:46:07.477Z,14.61
2018-03-11T17:48:39.292Z,14.49
2018-03-11T17:51:06.785Z,14.47
2018-03-11T17:53:34.268Z,14.44
2018-03-11T17:56:01.807Z,14.31
2018-03-11T17:58:29.382Z,14.33
2018-03-11T18:00:56.957Z,14.32
2018-03-11T18:03:24.478Z,14.28
2018-03-11T18:05:53.781Z,14.19
2018-03-11T18:08:21.363Z,14.20
2018-03-11T18:10:48.874Z,14.10
2018-03-11T18:13:16.388Z,14.02
2018-03-11T18:15:43.908Z,13.98
2018-03-11T18:18:11.472Z,14.01
2018-03-11T18:20:38.990Z,13.98
2018-03-11T18:23:06.482Z,13.96
2018-03-11T18:25:34.008Z,14.02
2018-03-11T18:28:01.566Z,14.04
2018-03-11T18:30:29.060Z,14.18
2018-03-11T18:32:56.591Z,14.26
2018-03-11T18:35:24.086Z,14.27
2018-03-11T18:37:52.453Z,14.32
2018-03-11T18:40:23.303Z,14.32
2018-03-11T18:42:50.850Z,14.36
2018-03-11T18:45:18.445Z,14.38
2018-03-11T18:47:45.957Z,14.35
2018-03-11T18:50:13.493Z,14.34
2018-03-11T18:52:41.007Z,14.40
2018-03-11T18:55:08.635Z,14.41
2018-03-11T18:57:36.188Z,14.41
2018-03-11T19:00:03.762Z,14.37
2018-03-11T19:02:31.282Z,14.33
2018-03-11T19:05:00.464Z,14.28
2018-03-11T19:07:27.976Z,14.26
2018-03-11T19:09:55.756Z,14.21
2018-03-11T19:12:23.250Z,14.15
2018-03-11T19:14:50.748Z,14.11
2018-03-11T19:17:18.242Z,14.08
2018-03-11T19:19:45.765Z,14.04
2018-03-11T19:22:13.271Z,14.00
2018-03-11T19:24:40.802Z,13.94
2018-03-11T19:27:08.480Z,13.95
2018-03-11T19:29:35.971Z,13.91
2018-03-11T19:32:03.448Z,13.91
2018-03-11T19:34:30.977Z,13.89
2018-03-11T19:36:59.038Z,13.86
2018-03-11T19:39:26.557Z,13.88
2018-03-11T19:41:54.052Z,13.83
2018-03-11T19:44:21.562Z,13.85
2018-03-11T19:46:49.110Z,13.88
2018-03-11T19:49:16.622Z,13.93
2018-03-11T19:51:44.138Z,13.93
2018-03-11T19:54:12.304Z,13.94
2018-03-11T19:56:39.802Z,13.93
2018-03-11T19:59:07.335Z,13.85
2018-03-11T20:01:36.358Z,13.92
2018-03-11T20:04:03.863Z,13.87
2018-03-11T20:06:31.364Z,13.83
2018-03-11T20:08:58.972Z,13.80
2018-03-11T20:11:26.471Z,13.76
2018-03-11T20:13:53.963Z,13.63
2018-03-11T20:16:21.470Z,13.62
2018-03-11T20:18:48.954Z,13.50
2018-03-11T20:21:16.476Z,13.50
2018-03-11T20:23:43.968Z,13.47
2018-03-11T20:26:11.449Z,13.34
2018-03-11T20:28:39.111Z,13.33
2018-03-11T20:31:06.610Z,13.21
2018-03-11T20:33:34.136Z,13.13
2018-03-11T20:36:01.668Z,13.01
2018-03-11T20:38:29.172Z,12.79
2018-03-11T20:40:56.720Z,12.78
2018-03-11T20:43:24.217Z,12.72
2018-03-11T20:45:51.767Z,12.74
2018-03-11T20:48:19.329Z,12.76
2018-03-11T20:50:46.880Z,12.69
2018-03-11T20:53:14.428Z,12.59
2018-03-11T20:55:41.923Z,12.56
2018-03-11T20:58:09.509Z,12.57
2018-03-11T21:00:37.035Z,12.61
2018-03-11T21:03:04.529Z,12.57
2018-03-11T21:05:33.014Z,12.53
2018-03-11T21:08:00.512Z,12.54
2018-03-11T21:10:28.012Z,12.53
2018-03-11T21:12:56.539Z,12.50
2018-03-11T21:15:24.016Z,12.50
2018-03-11T21:17:51.516Z,12.46
2018-03-11T21:20:19.022Z,12.45
2018-03-11T21:22:46.591Z,12.42
2018-03-11T21:25:14.098Z,12.35
2018-03-11T21:27:41.581Z,12.36
2018-03-11T21:30:09.116Z,12.36
2018-03-11T21:32:36.616Z,12.32
2018-03-11T21:35:04.128Z,12.27
2018-03-11T21:37:31.646Z,12.17
2018-03-11T21:39:59.185Z,12.16
2018-03-11T21:42:26.687Z,12.10
2018-03-11T21:44:54.166Z,11.93
2018-03-11T21:47:21.634Z,11.91
2018-03-11T21:49:49.128Z,11.93
2018-03-11T21:52:16.615Z,11.93
2018-03-11T21:54:44.139Z,11.89
2018-03-11T21:57:11.633Z,11.89
2018-03-11T21:59:39.139Z,11.81
2018-03-11T22:02:06.661Z,11.82
2018-03-11T22:04:34.195Z,11.81
2018-03-11T22:07:01.734Z,11.72
2018-03-11T22:09:29.236Z,11.75
2018-03-11T22:11:56.763Z,11.79
2018-03-11T22:14:24.251Z,11.80
2018-03-11T22:16:51.776Z,11.92
2018-03-11T22:19:19.301Z,11.89
2018-03-11T22:21:46.803Z,11.87
2018-03-11T22:24:14.297Z,11.84
2018-03-11T22:26:41.818Z,11.71
2018-03-11T22:29:09.362Z,11.53
2018-03-11T22:31:36.907Z,11.53
2018-03-11T22:34:04.542Z,11.45
2018-03-11T22:36:32.073Z,11.36
2018-03-11T22:38:59.606Z,11.29
2018-03-11T22:41:27.126Z,11.30
2018-03-11T22:43:54.630Z,11.29
2018-03-11T22:46:22.268Z,11.18
2018-03-11T22:48:49.852Z,11.20
2018-03-11T22:51:17.352Z,11.14
2018-03-11T22:53:45.063Z,11.11
2018-03-11T22:56:12.631Z,11.01
2018-03-11T22:58:40.304Z,11.03
2018-03-11T23:01:07.841Z,11.02
2018-03-11T23:03:35.330Z,11.01
2018-03-11T23:06:02.820Z,11.02
2018-03-11T23:08:30.328Z,10.98
2018-03-11T23:10:57.977Z,10.93
2018-03-11T23:13:25.474Z,10.94
2018-03-11T23:15:53.031Z,10.93
2018-03-11T23:18:20.527Z,10.95
2018-03-11T23:20:48.020Z,10.95
2018-03-11T23:23:15.516Z,10.95
2018-03-11T23:25:43.041Z,10.96
2018-03-11T23:28:10.522Z,10.93
2018-03-11T23:30:38.021Z,10.89
2018-03-11T23:33:05.540Z,10.90
2018-03-11T23:35:33.049Z,10.88
2018-03-11T23:38:00.571Z,10.82
2018-03-11T23:40:28.100Z,10.83
2018-03-11T23:42:55.606Z,10.69
2018-03-11T23:45:23.136Z,10.50
2018-03-11T23:47:50.703Z,10.48
2018-03-11T23:50:18.224Z,10.52
2018-03-11T23:52:45.716Z,10.50
2018-03-11T23:55:13.227Z,10.49
2018-03-11T23:57:40.722Z,10.49
